Clarks Mills, New York
Current Conditions -  °F | °C
As of 12:53 PM on Monday 22 Dec 2014 (Local Time) from KGFL Reporting Station
Overcast Overcast  
Wind Chill: 33°   Ceiling: 4400
Heat Index: 33°   Visibility: 8mi
Dew Point: 26°   Wind: 0mph
Humidity: 75%   Direction: NA
Pressure: 30.31"   Gusts: NA
Location:  43.09°N, 73.5018°W
Report Text: KGFL 221753Z AUTO 00000KT 8SM OVC044 01/M03 A3031 RMK AO2 SLP273 T00061033 10006 21028 58018
Loading
Personal Weather Stations






























Interactive Weather Map New forecast layout! Learn more

10-Day Weather Forecast

Advertisements
Track Severe Weather on mobile